Time;durP1;ratioP1;P1;durP2;ratioP2;P2;SDS_P1;SDS_P2;PMS_P1;PMS_P2;Temp;Humidity;BMP_temperature;BMP_pressure;BME280_temperature;BME280_humidity;BME280_pressure;Samples;Min_cycle;Max_cycle;Signal;HPM_P1;HPM_P2
2023/11/17 00:02:05;;;;;;;3.20;2.22;;;;;;;;;;4900662;29;20020;-82
2023/11/17 00:04:51;;;;;;;3.95;2.10;;;;;;;;;;4894552;29;20028;-82
2023/11/17 00:07:36;;;;;;;4.90;3.08;;;;;;;;;;4899947;29;20048;-83
2023/11/17 00:10:21;;;;;;;2.72;1.98;;;;;;;;;;4910149;29;20027;-82
2023/11/17 00:13:07;;;;;;;3.35;2.28;;;;;;;;;;4916063;29;20435;-82
2023/11/17 00:15:53;;;;;;;3.53;1.75;;;;;;;;;;4892777;29;20033;-82
2023/11/17 00:18:38;;;;;;;3.85;2.17;;;;;;;;;;4897938;29;20032;-82
2023/11/17 00:21:24;;;;;;;3.90;1.77;;;;;;;;;;4916917;29;20071;-82
2023/11/17 00:24:10;;;;;;;3.22;2.10;;;;;;;;;;4904609;29;20047;-81
2023/11/17 00:26:55;;;;;;;3.28;1.95;;;;;;;;;;4903582;29;20075;-81
2023/11/17 00:29:50;;;;;;;1.95;1.40;;;;;;;;;;4906982;29;20024;-83
2023/11/17 00:32:35;;;;;;;2.65;1.20;;;;;;;;;;4903730;29;20032;-82
2023/11/17 00:35:21;;;;;;;3.13;1.38;;;;;;;;;;4887866;29;20048;-81
2023/11/17 00:38:06;;;;;;;1.73;1.17;;;;;;;;;;4902281;29;20050;-81
2023/11/17 00:40:51;;;;;;;4.28;1.92;;;;;;;;;;4904686;29;20427;-82
2023/11/17 00:43:36;;;;;;;2.17;1.10;;;;;;;;;;4907968;29;20099;-82
2023/11/17 00:46:22;;;;;;;2.20;1.25;;;;;;;;;;4897135;29;20039;-81
2023/11/17 00:49:07;;;;;;;1.30;0.93;;;;;;;;;;4899679;29;20563;-82
2023/11/17 00:51:53;;;;;;;0.80;0.80;;;;;;;;;;4895455;29;20416;-81
2023/11/17 00:54:42;;;;;;;1.13;1.00;;;;;;;;;;4898843;29;20461;-81
2023/11/17 00:57:29;;;;;;;;;;;;;;;;;;4888114;29;20143;-81
2023/11/17 01:00:14;;;;;;;1.50;1.00;;;;;;;;;;4904770;29;19918;-82
2023/11/17 01:02:59;;;;;;;0.80;0.77;;;;;;;;;;4907226;29;20153;-81
2023/11/17 01:05:45;;;;;;;0.77;0.77;;;;;;;;;;4907638;29;20066;-81
2023/11/17 01:08:30;;;;;;;0.98;0.80;;;;;;;;;;4900630;29;20095;-80
2023/11/17 01:11:16;;;;;;;1.20;1.00;;;;;;;;;;4913194;29;20492;-80
2023/11/17 01:14:01;;;;;;;2.13;0.75;;;;;;;;;;4905925;29;20452;-81
2023/11/17 01:16:46;;;;;;;0.93;0.93;;;;;;;;;;4894495;29;20033;-82
2023/11/17 01:19:31;;;;;;;3.03;0.90;;;;;;;;;;4900248;29;20390;-81
2023/11/17 01:22:18;;;;;;;0.80;0.80;;;;;;;;;;4924194;29;20032;-82
2023/11/17 01:25:03;;;;;;;3.28;1.05;;;;;;;;;;4904016;29;20024;-82
2023/11/17 01:27:50;;;;;;;1.35;0.80;;;;;;;;;;4899434;29;20554;-82
2023/11/17 01:30:36;;;;;;;1.33;1.08;;;;;;;;;;4908547;29;20028;-81
2023/11/17 01:33:21;;;;;;;2.10;1.10;;;;;;;;;;4906432;29;20040;-82
2023/11/17 01:36:07;;;;;;;1.50;0.90;;;;;;;;;;4899756;29;20742;-83
2023/11/17 01:38:52;;;;;;;1.08;0.98;;;;;;;;;;4908362;29;20036;-81
2023/11/17 01:41:37;;;;;;;1.58;1.10;;;;;;;;;;4902824;29;20079;-83
2023/11/17 01:44:22;;;;;;;1.10;1.00;;;;;;;;;;4895022;29;20068;-83
2023/11/17 01:47:08;;;;;;;1.40;0.80;;;;;;;;;;4902049;29;20491;-83
2023/11/17 01:49:53;;;;;;;3.08;1.27;;;;;;;;;;4905970;29;20202;-82
2023/11/17 01:52:40;;;;;;;2.17;1.52;;;;;;;;;;4892980;29;20028;-81
2023/11/17 01:55:25;;;;;;;1.70;1.33;;;;;;;;;;4896654;29;20046;-82
2023/11/17 01:58:11;;;;;;;2.15;1.45;;;;;;;;;;4908830;29;20028;-80
2023/11/17 02:00:56;;;;;;;3.40;1.50;;;;;;;;;;4903460;29;20118;-82
2023/11/17 02:03:42;;;;;;;3.50;1.30;;;;;;;;;;4903862;29;20032;-81
2023/11/17 02:06:35;;;;;;;2.10;1.40;;;;;;;;;;4907156;29;20047;-82
2023/11/17 02:09:29;;;;;;;5.07;2.10;;;;;;;;;;4908563;29;20058;-81
2023/11/17 02:12:30;;;;;;;1.85;1.58;;;;;;;;;;4907460;29;20504;-82
2023/11/17 02:15:17;;;;;;;2.35;1.60;;;;;;;;;;4903812;29;20114;-81
2023/11/17 02:18:04;;;;;;;6.30;1.85;;;;;;;;;;4912678;29;20070;-81
2023/11/17 02:20:53;;;;;;;1.75;1.13;;;;;;;;;;4886857;29;20021;-82
2023/11/17 02:23:38;;;;;;;2.35;1.70;;;;;;;;;;4906121;29;20028;-82
2023/11/17 02:26:33;;;;;;;1.77;1.40;;;;;;;;;;4900422;29;20103;-81
2023/11/17 02:29:27;;;;;;;2.55;1.67;;;;;;;;;;4901334;29;20046;-82
2023/11/17 02:32:16;;;;;;;2.28;1.52;;;;;;;;;;4899498;29;20115;-81
2023/11/17 02:35:02;;;;;;;3.80;2.10;;;;;;;;;;4899251;29;20066;-81
2023/11/17 02:37:50;;;;;;;2.97;1.98;;;;;;;;;;4912153;29;20639;-81
2023/11/17 02:40:37;;;;;;;3.45;2.25;;;;;;;;;;4891577;29;20032;-81
2023/11/17 02:43:29;;;;;;;3.70;1.95;;;;;;;;;;4900988;29;20039;-79
2023/11/17 02:46:20;;;;;;;2.40;1.80;;;;;;;;;;4895131;29;20036;-81
2023/11/17 02:49:10;;;;;;;3.35;1.88;;;;;;;;;;4881200;29;20028;-81
2023/11/17 02:51:56;;;;;;;4.65;2.67;;;;;;;;;;4901059;29;20032;-81
2023/11/17 02:54:41;;;;;;;3.67;1.95;;;;;;;;;;4903578;29;20028;-83
2023/11/17 02:57:28;;;;;;;7.57;2.25;;;;;;;;;;4916702;29;20028;-79
2023/11/17 03:00:14;;;;;;;4.07;1.90;;;;;;;;;;4902301;29;20071;-79
2023/11/17 03:02:59;;;;;;;4.55;2.00;;;;;;;;;;4906429;29;20083;-82
2023/11/17 03:05:44;;;;;;;2.33;1.77;;;;;;;;;;4907558;29;20479;-80
2023/11/17 03:08:30;;;;;;;4.00;1.80;;;;;;;;;;4912580;29;20043;-80
2023/11/17 03:11:21;;;;;;;5.10;2.05;;;;;;;;;;4913724;29;20099;-82
2023/11/17 03:14:08;;;;;;;4.85;2.03;;;;;;;;;;4907923;29;20024;-83
2023/11/17 03:16:55;;;;;;;3.00;1.65;;;;;;;;;;4905266;29;20087;-83
2023/11/17 03:19:40;;;;;;;2.53;1.20;;;;;;;;;;4905058;29;20028;-82
2023/11/17 03:22:25;;;;;;;3.55;1.63;;;;;;;;;;4908883;29;20044;-83
2023/11/17 03:25:15;;;;;;;3.72;1.60;;;;;;;;;;4919147;29;20020;-84
2023/11/17 03:28:00;;;;;;;2.83;1.50;;;;;;;;;;4894508;29;20399;-83
2023/11/17 03:30:46;;;;;;;3.25;1.30;;;;;;;;;;4907784;29;20095;-82
2023/11/17 03:33:31;;;;;;;1.73;1.45;;;;;;;;;;4909217;29;20028;-82
2023/11/17 03:36:19;;;;;;;3.78;1.90;;;;;;;;;;4900879;29;20025;-82
2023/11/17 03:39:04;;;;;;;2.45;1.50;;;;;;;;;;4900208;29;20024;-81
2023/11/17 03:41:49;;;;;;;2.65;1.20;;;;;;;;;;4903212;29;20127;-81
2023/11/17 03:44:34;;;;;;;3.97;1.77;;;;;;;;;;4900549;29;20043;-81
2023/11/17 03:47:20;;;;;;;3.60;1.40;;;;;;;;;;4906208;29;20024;-81
2023/11/17 03:50:05;;;;;;;3.50;1.98;;;;;;;;;;4908612;29;20183;-80
2023/11/17 03:52:51;;;;;;;3.85;1.70;;;;;;;;;;4906592;29;20087;-81
2023/11/17 03:55:36;;;;;;;3.13;1.50;;;;;;;;;;4909435;29;20135;-81
2023/11/17 03:58:22;;;;;;;6.28;1.80;;;;;;;;;;4908715;29;20035;-82
2023/11/17 04:01:10;;;;;;;3.35;1.35;;;;;;;;;;4906941;29;20119;-82
2023/11/17 04:03:55;;;;;;;1.25;0.90;;;;;;;;;;4897633;29;20035;-82
2023/11/17 04:06:40;;;;;;;1.27;1.02;;;;;;;;;;4902354;29;20052;-82
2023/11/17 04:09:27;;;;;;;1.05;0.80;;;;;;;;;;4900400;29;20237;-82
2023/11/17 04:12:12;;;;;;;2.50;1.50;;;;;;;;;;4886342;29;20119;-82
2023/11/17 04:14:57;;;;;;;2.22;1.40;;;;;;;;;;4904332;29;20036;-81
2023/11/17 04:17:42;;;;;;;2.08;1.42;;;;;;;;;;4903472;29;20028;-83
2023/11/17 04:20:28;;;;;;;2.15;1.25;;;;;;;;;;4905628;29;20036;-84
2023/11/17 04:23:13;;;;;;;3.30;1.73;;;;;;;;;;4904476;29;20031;-82
2023/11/17 04:25:58;;;;;;;2.05;1.40;;;;;;;;;;4912955;29;20031;-82
2023/11/17 04:28:44;;;;;;;4.28;1.58;;;;;;;;;;4910831;29;20032;-82
2023/11/17 04:31:29;;;;;;;4.75;1.80;;;;;;;;;;4896657;29;20446;-83
2023/11/17 04:34:14;;;;;;;1.88;1.10;;;;;;;;;;4883129;29;20123;-83
2023/11/17 04:37:04;;;;;;;1.90;1.60;;;;;;;;;;4913007;29;20032;-82
2023/11/17 04:39:50;;;;;;;2.08;1.17;;;;;;;;;;4910049;29;20677;-83
2023/11/17 04:42:35;;;;;;;3.20;1.50;;;;;;;;;;4891872;29;20039;-82
2023/11/17 04:45:20;;;;;;;5.78;1.90;;;;;;;;;;4899813;29;20031;-82
2023/11/17 04:48:07;;;;;;;1.75;1.35;;;;;;;;;;4915385;29;20124;-82
2023/11/17 04:50:53;;;;;;;2.15;1.27;;;;;;;;;;4901809;29;20049;-82
2023/11/17 04:53:38;;;;;;;3.15;1.25;;;;;;;;;;4906217;29;20047;-82
2023/11/17 04:56:23;;;;;;;2.70;1.17;;;;;;;;;;4905759;29;20091;-82
2023/11/17 04:59:11;;;;;;;2.10;1.33;;;;;;;;;;4927132;29;20082;-82
2023/11/17 05:01:56;;;;;;;3.40;1.15;;;;;;;;;;4906997;29;20455;-82
2023/11/17 05:04:42;;;;;;;1.40;1.20;;;;;;;;;;4894339;29;20039;-81
2023/11/17 05:07:27;;;;;;;1.90;1.20;;;;;;;;;;4924380;29;20031;-82
2023/11/17 05:10:15;;;;;;;2.42;1.33;;;;;;;;;;4907154;29;20052;-83
2023/11/17 05:13:00;;;;;;;2.40;1.83;;;;;;;;;;4892648;29;20045;-82
2023/11/17 05:15:46;;;;;;;2.72;1.58;;;;;;;;;;4899951;29;20035;-82
2023/11/17 05:18:31;;;;;;;3.35;1.63;;;;;;;;;;4893089;29;20032;-82
2023/11/17 05:21:17;;;;;;;2.50;1.38;;;;;;;;;;4902597;29;20028;-82
2023/11/17 05:24:02;;;;;;;5.78;1.83;;;;;;;;;;4897496;29;20020;-82
2023/11/17 05:26:49;;;;;;;2.67;1.60;;;;;;;;;;4903025;29;20562;-84
2023/11/17 05:29:36;;;;;;;2.17;1.25;;;;;;;;;;4897862;29;20046;-83
2023/11/17 05:32:24;;;;;;;2.35;1.30;;;;;;;;;;4890681;29;20037;-82
2023/11/17 05:35:10;;;;;;;1.50;1.27;;;;;;;;;;4914353;29;20031;-81
2023/11/17 05:37:56;;;;;;;1.77;1.17;;;;;;;;;;4926627;29;20063;-82
2023/11/17 05:40:41;;;;;;;3.95;1.50;;;;;;;;;;4917970;29;20027;-83
2023/11/17 05:43:26;;;;;;;6.78;1.52;;;;;;;;;;4901367;29;20490;-81
2023/11/17 05:46:11;;;;;;;1.70;1.27;;;;;;;;;;4906985;29;20064;-81
2023/11/17 05:48:57;;;;;;;1.38;1.27;;;;;;;;;;4906618;29;20040;-83
2023/11/17 05:51:45;;;;;;;2.95;1.40;;;;;;;;;;4900699;29;20122;-83
2023/11/17 05:54:31;;;;;;;1.38;1.08;;;;;;;;;;4899519;29;20682;-83
2023/11/17 05:57:17;;;;;;;3.58;1.23;;;;;;;;;;4907327;29;20032;-84
2023/11/17 06:00:08;;;;;;;3.13;1.30;;;;;;;;;;4903824;29;20024;-83
2023/11/17 06:02:53;;;;;;;2.03;1.30;;;;;;;;;;4896700;29;20511;-83
2023/11/17 06:05:39;;;;;;;2.08;1.58;;;;;;;;;;4904035;29;20194;-83
2023/11/17 06:08:31;;;;;;;2.70;1.50;;;;;;;;;;4907986;29;20123;-83
2023/11/17 06:11:23;;;;;;;3.08;1.55;;;;;;;;;;4908041;29;20035;-83
2023/11/17 06:14:10;;;;;;;3.60;1.45;;;;;;;;;;4907262;29;20086;-85
2023/11/17 06:16:56;;;;;;;3.33;1.65;;;;;;;;;;4908599;29;20032;-84
2023/11/17 06:19:42;;;;;;;3.03;1.30;;;;;;;;;;4891756;29;20032;-84
2023/11/17 06:22:30;;;;;;;2.53;1.63;;;;;;;;;;4908957;29;20092;-84
2023/11/17 06:25:15;;;;;;;4.85;1.80;;;;;;;;;;4905181;29;20031;-86
2023/11/17 06:28:01;;;;;;;3.22;1.70;;;;;;;;;;4897421;29;20159;-84
2023/11/17 06:30:46;;;;;;;5.32;1.90;;;;;;;;;;4895506;29;20028;-82
2023/11/17 06:33:32;;;;;;;3.70;2.00;;;;;;;;;;4901524;29;20248;-83
2023/11/17 06:36:18;;;;;;;3.13;1.65;;;;;;;;;;4904807;29;20039;-83
2023/11/17 06:39:13;;;;;;;4.78;1.83;;;;;;;;;;4902491;29;20039;-83
2023/11/17 06:41:59;;;;;;;6.10;2.45;;;;;;;;;;4902592;29;20111;-84
2023/11/17 06:44:45;;;;;;;4.00;1.73;;;;;;;;;;4904335;29;20028;-83
2023/11/17 06:47:30;;;;;;;2.92;1.73;;;;;;;;;;4917384;29;20462;-84
2023/11/17 06:50:15;;;;;;;5.45;2.15;;;;;;;;;;4900908;29;20175;-81
2023/11/17 06:53:03;;;;;;;4.32;2.00;;;;;;;;;;4896606;29;20042;-82
2023/11/17 06:55:49;;;;;;;5.22;2.13;;;;;;;;;;4904927;29;20032;-82
2023/11/17 06:58:34;;;;;;;3.88;1.92;;;;;;;;;;4911810;29;20091;-82
2023/11/17 07:01:20;;;;;;;4.82;1.88;;;;;;;;;;4904861;29;20161;-82
2023/11/17 07:04:10;;;;;;;4.53;2.28;;;;;;;;;;4900578;29;20075;-80
2023/11/17 07:06:56;;;;;;;4.18;2.25;;;;;;;;;;4911465;29;20110;-82
2023/11/17 07:09:42;;;;;;;4.65;2.10;;;;;;;;;;4900445;29;20542;-81
2023/11/17 07:12:28;;;;;;;6.20;2.03;;;;;;;;;;4902366;29;20032;-80
2023/11/17 07:15:13;;;;;;;10.00;2.65;;;;;;;;;;4898449;29;20028;-82
2023/11/17 07:17:58;;;;;;;5.85;1.92;;;;;;;;;;4899738;29;20064;-83
2023/11/17 07:20:44;;;;;;;2.97;1.90;;;;;;;;;;4901706;29;20655;-82
2023/11/17 07:23:29;;;;;;;6.65;3.22;;;;;;;;;;4896768;29;20028;-85
2023/11/17 07:26:20;;;;;;;3.33;2.13;;;;;;;;;;4903389;29;20024;-81
2023/11/17 07:32:16;;;;;;;4.95;2.05;;;;;;;;;;4903483;29;20032;-82
2023/11/17 07:35:01;;;;;;;5.07;2.40;;;;;;;;;;4900347;29;20031;-81
2023/11/17 07:37:46;;;;;;;5.57;2.22;;;;;;;;;;4905943;29;20091;-82
2023/11/17 07:40:32;;;;;;;6.05;2.05;;;;;;;;;;4900853;29;20031;-81
2023/11/17 07:43:17;;;;;;;5.18;2.50;;;;;;;;;;4904375;29;20554;-81
2023/11/17 07:46:02;;;;;;;3.22;1.73;;;;;;;;;;4902383;29;20040;-81
2023/11/17 07:48:48;;;;;;;3.78;2.13;;;;;;;;;;4901020;29;20032;-81
2023/11/17 07:51:36;;;;;;;2.97;1.55;;;;;;;;;;4882007;29;20051;-83
2023/11/17 07:54:22;;;;;;;2.67;1.83;;;;;;;;;;4899313;29;20032;-81
2023/11/17 07:57:07;;;;;;;7.72;3.33;;;;;;;;;;4896114;29;20040;-81
2023/11/17 07:59:53;;;;;;;5.40;1.80;;;;;;;;;;4899515;29;20509;-81
2023/11/17 08:02:38;;;;;;;4.20;2.22;;;;;;;;;;4903707;29;20048;-83
2023/11/17 08:05:23;;;;;;;7.50;2.20;;;;;;;;;;4886806;29;20028;-83
2023/11/17 08:08:09;;;;;;;3.65;2.10;;;;;;;;;;4896144;29;20028;-84
2023/11/17 08:10:55;;;;;;;2.70;1.52;;;;;;;;;;4897946;29;20034;-84
2023/11/17 08:13:42;;;;;;;3.63;1.55;;;;;;;;;;4907525;29;20036;-85
2023/11/17 08:16:27;;;;;;;3.20;1.58;;;;;;;;;;4908398;29;20115;-83
2023/11/17 08:19:13;;;;;;;3.53;1.80;;;;;;;;;;4904742;29;20453;-83
2023/11/17 08:21:58;;;;;;;2.42;1.50;;;;;;;;;;4902271;29;20039;-81
2023/11/17 08:24:43;;;;;;;2.08;1.55;;;;;;;;;;4905000;29;20103;-85
2023/11/17 08:27:29;;;;;;;2.92;1.70;;;;;;;;;;4903492;29;20043;-82
2023/11/17 08:30:14;;;;;;;3.17;2.05;;;;;;;;;;4904898;29;20084;-83
2023/11/17 08:32:59;;;;;;;4.70;1.88;;;;;;;;;;4900428;29;20172;-84
2023/11/17 08:35:45;;;;;;;2.72;1.52;;;;;;;;;;4909242;29;20396;-83
2023/11/17 08:38:31;;;;;;;2.67;1.60;;;;;;;;;;4901330;29;20063;-84
2023/11/17 08:41:16;;;;;;;2.95;1.95;;;;;;;;;;4901741;29;20020;-84
2023/11/17 08:44:02;;;;;;;3.95;1.85;;;;;;;;;;4897700;29;20172;-85
2023/11/17 08:46:48;;;;;;;10.48;2.22;;;;;;;;;;4904774;29;20103;-83
2023/11/17 08:49:36;;;;;;;4.00;1.75;;;;;;;;;;4904239;29;20029;-84
2023/11/17 08:52:22;;;;;;;4.18;1.88;;;;;;;;;;4905829;29;20039;-84
2023/11/17 08:55:07;;;;;;;7.70;2.08;;;;;;;;;;4906280;29;20035;-83
2023/11/17 08:57:53;;;;;;;4.03;1.80;;;;;;;;;;4905779;29;20032;-84
2023/11/17 09:00:40;;;;;;;3.08;1.65;;;;;;;;;;4907847;29;20039;-86
2023/11/17 09:03:26;;;;;;;2.38;1.70;;;;;;;;;;4908783;29;20115;-88
2023/11/17 09:06:13;;;;;;;2.90;1.40;;;;;;;;;;4905957;29;20050;-87
2023/11/17 09:08:58;;;;;;;1.77;1.45;;;;;;;;;;4902327;29;20035;-84
2023/11/17 09:11:47;;;;;;;3.22;1.90;;;;;;;;;;4905326;29;20387;-84
2023/11/17 09:14:33;;;;;;;4.03;1.60;;;;;;;;;;4916845;29;20083;-82
2023/11/17 09:17:18;;;;;;;2.38;1.40;;;;;;;;;;4907802;29;20280;-85
2023/11/17 09:20:08;;;;;;;1.55;1.20;;;;;;;;;;4903146;29;20060;-82
2023/11/17 09:22:54;;;;;;;1.60;1.23;;;;;;;;;;4906273;29;20099;-87
2023/11/17 09:25:39;;;;;;;2.35;1.48;;;;;;;;;;4908159;29;20464;-83
2023/11/17 09:28:25;;;;;;;1.48;1.00;;;;;;;;;;4902193;29;20049;-84
2023/11/17 09:31:10;;;;;;;2.00;1.20;;;;;;;;;;4903267;29;20619;-85
2023/11/17 09:33:56;;;;;;;5.15;1.20;;;;;;;;;;4903173;29;20107;-83
2023/11/17 09:36:41;;;;;;;1.60;1.10;;;;;;;;;;4903138;29;20040;-83
2023/11/17 09:39:27;;;;;;;1.65;1.00;;;;;;;;;;4907447;29;20032;-83
2023/11/17 09:42:14;;;;;;;1.15;0.93;;;;;;;;;;4903374;29;20034;-84
2023/11/17 09:44:59;;;;;;;1.88;1.00;;;;;;;;;;4900851;29;20028;-84
2023/11/17 09:47:46;;;;;;;1.10;1.00;;;;;;;;;;4901016;29;20032;-83
2023/11/17 09:50:31;;;;;;;1.70;1.10;;;;;;;;;;4905921;29;20062;-83
2023/11/17 09:53:17;;;;;;;2.05;0.90;;;;;;;;;;4919809;29;20107;-82
2023/11/17 09:56:03;;;;;;;1.42;0.88;;;;;;;;;;4906008;29;20111;-83
2023/11/17 09:58:50;;;;;;;2.65;1.15;;;;;;;;;;4903805;29;20138;-81
2023/11/17 10:01:36;;;;;;;1.20;1.10;;;;;;;;;;4905177;29;20020;-82
2023/11/17 10:04:22;;;;;;;2.95;1.02;;;;;;;;;;4906148;29;20530;-84
2023/11/17 10:07:09;;;;;;;2.35;1.10;;;;;;;;;;4903901;29;20078;-82
2023/11/17 10:09:56;;;;;;;1.27;1.00;;;;;;;;;;4898027;29;20032;-82
2023/11/17 10:12:47;;;;;;;1.20;1.08;;;;;;;;;;4907301;29;20028;-82
2023/11/17 10:15:46;;;;;;;1.60;1.00;;;;;;;;;;4903456;29;20027;-80
2023/11/17 10:18:32;;;;;;;1.10;1.00;;;;;;;;;;4901696;29;20044;-80
2023/11/17 10:21:19;;;;;;;0.80;0.80;;;;;;;;;;4903019;29;20512;-84
2023/11/17 10:24:06;;;;;;;1.58;1.10;;;;;;;;;;4898943;29;20032;-83
2023/11/17 10:26:51;;;;;;;1.45;1.00;;;;;;;;;;4901697;29;20060;-84
2023/11/17 10:29:37;;;;;;;2.72;0.85;;;;;;;;;;4905917;29;20088;-83
2023/11/17 10:32:23;;;;;;;8.07;0.95;;;;;;;;;;4904786;29;20115;-83
2023/11/17 10:35:34;;;;;;;0.90;0.85;;;;;;;;;;4904359;29;20035;-82
2023/11/17 10:38:19;;;;;;;0.95;0.82;;;;;;;;;;4900651;29;20036;-82
2023/11/17 10:41:20;;;;;;;1.42;0.95;;;;;;;;;;4894781;29;20028;-81
2023/11/17 10:47:22;;;;;;;2.47;1.10;;;;;;;;;;4884921;29;20034;-80
2023/11/17 10:50:08;;;;;;;2.28;1.20;;;;;;;;;;4901757;29;20055;-80
2023/11/17 10:52:53;;;;;;;1.73;0.80;;;;;;;;;;4903062;29;20526;-80
2023/11/17 10:55:42;;;;;;;1.38;1.00;;;;;;;;;;4905617;29;20110;-81
2023/11/17 10:58:27;;;;;;;1.45;1.20;;;;;;;;;;4903114;29;20641;-82
2023/11/17 11:01:14;;;;;;;1.35;1.13;;;;;;;;;;4904393;29;20040;-81
2023/11/17 11:03:59;;;;;;;1.75;0.90;;;;;;;;;;4900020;29;20549;-81
2023/11/17 11:06:45;;;;;;;1.05;0.95;;;;;;;;;;4898022;29;20028;-79
2023/11/17 11:09:35;;;;;;;1.60;0.80;;;;;;;;;;4902336;29;20031;-79
2023/11/17 11:12:23;;;;;;;0.73;0.73;;;;;;;;;;4901333;29;20028;-77
2023/11/17 11:15:14;;;;;;;1.35;1.02;;;;;;;;;;4900131;29;20430;-80
2023/11/17 11:18:05;;;;;;;2.30;1.30;;;;;;;;;;4895416;29;20027;-80
2023/11/17 11:20:51;;;;;;;1.15;0.85;;;;;;;;;;4893099;29;20448;-80
2023/11/17 11:23:37;;;;;;;0.88;0.88;;;;;;;;;;4902800;29;20036;-79
2023/11/17 11:26:22;;;;;;;5.20;0.90;;;;;;;;;;4899086;29;20032;-79
2023/11/17 11:29:07;;;;;;;1.35;0.85;;;;;;;;;;4900385;29;20020;-79
2023/11/17 11:31:55;;;;;;;5.05;1.55;;;;;;;;;;4896913;29;20696;-78
2023/11/17 11:34:41;;;;;;;4.57;1.27;;;;;;;;;;4903608;29;20530;-80
2023/11/17 11:37:32;;;;;;;4.68;1.00;;;;;;;;;;4904672;29;20560;-80
2023/11/17 11:40:17;;;;;;;1.52;0.95;;;;;;;;;;4905748;29;20356;-79
2023/11/17 11:43:03;;;;;;;1.25;0.82;;;;;;;;;;4900701;29;20542;-81
2023/11/17 11:45:49;;;;;;;1.55;0.90;;;;;;;;;;4891413;29;20048;-79
2023/11/17 11:48:37;;;;;;;2.25;0.90;;;;;;;;;;4902973;29;20392;-81
2023/11/17 11:51:23;;;;;;;1.58;0.90;;;;;;;;;;4891396;29;20060;-80
2023/11/17 11:54:10;;;;;;;1.30;1.08;;;;;;;;;;4893739;29;20648;-83
2023/11/17 11:56:57;;;;;;;2.65;1.10;;;;;;;;;;4899874;29;20051;-80
2023/11/17 11:59:42;;;;;;;0.70;0.70;;;;;;;;;;4892271;29;20483;-80
2023/11/17 12:02:30;;;;;;;1.88;1.00;;;;;;;;;;4904560;29;20024;-79
2023/11/17 12:05:20;;;;;;;1.70;0.90;;;;;;;;;;4900205;29;20028;-81
2023/11/17 12:08:20;;;;;;;1.65;1.33;;;;;;;;;;4903112;29;20403;-78
2023/11/17 12:11:05;;;;;;;1.25;1.00;;;;;;;;;;4895198;29;20507;-78
2023/11/17 12:13:57;;;;;;;1.52;1.15;;;;;;;;;;4900354;29;20064;-78
2023/11/17 12:16:51;;;;;;;1.13;1.02;;;;;;;;;;4892587;29;20487;-79
2023/11/17 12:19:36;;;;;;;0.70;0.70;;;;;;;;;;4899537;29;20067;-79
2023/11/17 12:22:22;;;;;;;1.25;1.02;;;;;;;;;;4897741;29;20043;-78
2023/11/17 12:25:11;;;;;;;9.00;1.40;;;;;;;;;;4901776;29;20036;-79
2023/11/17 12:27:56;;;;;;;1.93;1.30;;;;;;;;;;4898130;29;20042;-79
2023/11/17 12:30:42;;;;;;;2.20;0.93;;;;;;;;;;4900740;29;20039;-84
2023/11/17 12:33:27;;;;;;;1.00;0.90;;;;;;;;;;4899640;29;20146;-83
2023/11/17 12:36:20;;;;;;;1.00;0.90;;;;;;;;;;4886763;29;20020;-82
2023/11/17 12:39:12;;;;;;;1.23;0.80;;;;;;;;;;4904740;29;20119;-87
2023/11/17 12:41:57;;;;;;;1.40;1.15;;;;;;;;;;4903791;29;20043;-86
2023/11/17 12:44:42;;;;;;;2.42;0.70;;;;;;;;;;4868602;29;20032;-89
2023/11/17 12:47:28;;;;;;;1.30;0.80;;;;;;;;;;4904672;29;20103;-86
2023/11/17 12:50:13;;;;;;;1.58;0.70;;;;;;;;;;4886496;29;20071;-82
2023/11/17 12:52:59;;;;;;;1.75;0.85;;;;;;;;;;4899869;29;20039;-81
2023/11/17 12:55:47;;;;;;;1.08;0.93;;;;;;;;;;4899349;29;20024;-83
2023/11/17 12:58:33;;;;;;;1.15;0.70;;;;;;;;;;4908025;29;20087;-83
2023/11/17 13:01:19;;;;;;;1.10;0.60;;;;;;;;;;4902345;29;20274;-84
2023/11/17 13:04:05;;;;;;;0.90;0.70;;;;;;;;;;4904679;29;20681;-84
2023/11/17 13:06:50;;;;;;;1.33;0.70;;;;;;;;;;4905707;29;20036;-83
2023/11/17 13:09:36;;;;;;;3.65;0.70;;;;;;;;;;4881052;29;20139;-82
2023/11/17 13:12:21;;;;;;;0.85;0.50;;;;;;;;;;4893406;29;20043;-82
2023/11/17 13:15:09;;;;;;;0.65;0.65;;;;;;;;;;4901554;29;20088;-82
2023/11/17 13:17:54;;;;;;;1.05;0.90;;;;;;;;;;4902208;29;20064;-83
2023/11/17 13:20:39;;;;;;;0.95;0.80;;;;;;;;;;4906751;29;20725;-83
2023/11/17 13:23:25;;;;;;;0.90;0.85;;;;;;;;;;4898877;29;20031;-84
2023/11/17 13:26:12;;;;;;;0.60;0.50;;;;;;;;;;4903444;29;20110;-83
2023/11/17 13:28:58;;;;;;;0.93;0.70;;;;;;;;;;4896269;29;20032;-83
2023/11/17 13:31:43;;;;;;;0.70;0.70;;;;;;;;;;4913273;29;20458;-83
2023/11/17 13:34:30;;;;;;;0.90;0.90;;;;;;;;;;4897411;29;20131;-83
2023/11/17 13:37:15;;;;;;;0.63;0.60;;;;;;;;;;4904240;29;20625;-85
2023/11/17 13:40:02;;;;;;;1.73;0.68;;;;;;;;;;4904361;29;20059;-83
2023/11/17 13:42:49;;;;;;;0.70;0.70;;;;;;;;;;4899427;29;20107;-83
2023/11/17 13:45:37;;;;;;;1.50;0.80;;;;;;;;;;4907857;29;20043;-83
2023/11/17 13:48:22;;;;;;;1.23;0.80;;;;;;;;;;4898561;29;20152;-82
2023/11/17 13:51:08;;;;;;;1.67;0.98;;;;;;;;;;4892815;29;20068;-81
2023/11/17 13:53:53;;;;;;;3.63;1.40;;;;;;;;;;4903607;29;20036;-81
2023/11/17 13:56:40;;;;;;;3.22;1.02;;;;;;;;;;4898041;29;20560;-82
2023/11/17 13:59:26;;;;;;;2.67;0.95;;;;;;;;;;4901058;29;20067;-82
2023/11/17 14:02:11;;;;;;;3.10;1.27;;;;;;;;;;4905787;29;20027;-82
2023/11/17 14:04:59;;;;;;;1.45;1.00;;;;;;;;;;4904539;29;20068;-83
2023/11/17 14:07:44;;;;;;;0.75;0.70;;;;;;;;;;4898848;29;20482;-83
2023/11/17 14:10:30;;;;;;;1.40;0.80;;;;;;;;;;4903804;29;20071;-83
2023/11/17 14:13:17;;;;;;;2.92;0.90;;;;;;;;;;4897168;29;20046;-87
2023/11/17 14:16:08;;;;;;;2.55;0.98;;;;;;;;;;4896333;29;20028;-83
2023/11/17 14:18:54;;;;;;;2.42;1.13;;;;;;;;;;4903580;29;20055;-82
2023/11/17 14:21:45;;;;;;;1.40;0.70;;;;;;;;;;4905865;29;20547;-82
2023/11/17 14:24:30;;;;;;;1.17;0.93;;;;;;;;;;4902133;29;20392;-84
2023/11/17 14:27:15;;;;;;;0.85;0.80;;;;;;;;;;4906996;29;20100;-84
2023/11/17 14:30:00;;;;;;;1.75;0.85;;;;;;;;;;4905217;29;20032;-83
2023/11/17 14:32:45;;;;;;;1.80;0.88;;;;;;;;;;4906331;29;20036;-84
2023/11/17 14:35:31;;;;;;;1.33;0.80;;;;;;;;;;4895172;29;20403;-84
2023/11/17 14:38:16;;;;;;;1.10;0.80;;;;;;;;;;4901485;29;20492;-83
2023/11/17 14:41:02;;;;;;;0.70;0.70;;;;;;;;;;4908481;29;20689;-83
2023/11/17 14:43:49;;;;;;;1.50;0.88;;;;;;;;;;4902670;29;20043;-82
2023/11/17 14:46:34;;;;;;;1.55;0.85;;;;;;;;;;4907421;29;20028;-83
2023/11/17 14:49:20;;;;;;;2.92;0.82;;;;;;;;;;4904191;29;20077;-81
2023/11/17 14:52:05;;;;;;;2.63;1.00;;;;;;;;;;4927252;29;20109;-86
2023/11/17 14:54:50;;;;;;;2.80;0.98;;;;;;;;;;4930467;29;20060;-85
2023/11/17 14:57:39;;;;;;;2.33;1.58;;;;;;;;;;4920645;29;20032;-85
2023/11/17 15:00:24;;;;;;;1.77;1.00;;;;;;;;;;4930490;29;20024;-86
2023/11/17 15:03:10;;;;;;;1.60;0.93;;;;;;;;;;4927072;29;20020;-85
2023/11/17 15:05:55;;;;;;;2.38;1.10;;;;;;;;;;4913809;29;20365;-85
2023/11/17 15:08:42;;;;;;;2.00;1.40;;;;;;;;;;4908344;29;20549;-87
2023/11/17 15:11:27;;;;;;;2.35;1.27;;;;;;;;;;4908254;29;20115;-86
2023/11/17 15:14:18;;;;;;;2.08;1.20;;;;;;;;;;4902051;29;20039;-84
2023/11/17 15:17:05;;;;;;;2.00;1.42;;;;;;;;;;4905616;29;20030;-85
2023/11/17 15:19:53;;;;;;;1.70;1.25;;;;;;;;;;4927198;29;20060;-85
2023/11/17 15:22:38;;;;;;;1.23;1.00;;;;;;;;;;4916047;29;20042;-85
2023/11/17 15:25:31;;;;;;;5.55;1.40;;;;;;;;;;4911054;29;20016;-87
2023/11/17 15:28:20;;;;;;;3.03;2.55;;;;;;;;;;4918827;29;20039;-87
2023/11/17 15:31:10;;;;;;;1.83;1.10;;;;;;;;;;4896543;29;20039;-89
2023/11/17 15:33:56;;;;;;;2.20;1.60;;;;;;;;;;4909015;29;20408;-87
2023/11/17 15:36:42;;;;;;;2.65;1.35;;;;;;;;;;4899541;29;20087;-85
2023/11/17 15:39:29;;;;;;;3.10;1.40;;;;;;;;;;4900361;29;20036;-86
2023/11/17 15:42:15;;;;;;;3.47;1.27;;;;;;;;;;4891351;29;20114;-88
2023/11/17 15:45:06;;;;;;;7.25;1.40;;;;;;;;;;4902179;29;20036;-85
2023/11/17 15:47:52;;;;;;;4.97;1.55;;;;;;;;;;4911711;29;20118;-85
2023/11/17 15:50:38;;;;;;;1.67;1.17;;;;;;;;;;4898288;29;20565;-86
2023/11/17 15:53:23;;;;;;;4.25;2.00;;;;;;;;;;4905301;29;20115;-84
2023/11/17 15:56:11;;;;;;;3.67;1.75;;;;;;;;;;4895097;29;20438;-84
2023/11/17 15:58:59;;;;;;;2.55;1.67;;;;;;;;;;4913885;29;20028;-86
2023/11/17 16:01:45;;;;;;;4.93;1.90;;;;;;;;;;4905219;29;20440;-86
2023/11/17 16:04:30;;;;;;;4.05;1.70;;;;;;;;;;4907292;29;20028;-85
2023/11/17 16:07:17;;;;;;;6.43;2.40;;;;;;;;;;4903288;29;20032;-83
2023/11/17 16:10:03;;;;;;;2.47;1.80;;;;;;;;;;4900527;29;20103;-83
2023/11/17 16:12:49;;;;;;;3.60;1.83;;;;;;;;;;4903529;29;20052;-87
2023/11/17 16:15:34;;;;;;;4.32;1.83;;;;;;;;;;4909901;29;20059;-84
2023/11/17 16:18:20;;;;;;;5.88;2.95;;;;;;;;;;4887429;29;20084;-84
2023/11/17 16:21:06;;;;;;;4.22;2.05;;;;;;;;;;4900469;29;20028;-87
2023/11/17 16:23:51;;;;;;;5.70;1.83;;;;;;;;;;4888336;29;20043;-89
2023/11/17 16:26:37;;;;;;;4.15;1.65;;;;;;;;;;4881225;29;20032;-85
2023/11/17 16:29:22;;;;;;;6.93;2.97;;;;;;;;;;4910092;29;20031;-86
2023/11/17 16:32:07;;;;;;;4.85;2.08;;;;;;;;;;4908536;29;20438;-86
2023/11/17 16:34:53;;;;;;;3.97;2.33;;;;;;;;;;4889751;29;20071;-85
2023/11/17 16:37:38;;;;;;;6.53;2.67;;;;;;;;;;4908682;29;20031;-84
2023/11/17 16:40:24;;;;;;;4.70;2.13;;;;;;;;;;4898874;29;20476;-84
2023/11/17 16:43:10;;;;;;;3.90;2.35;;;;;;;;;;4892636;29;20350;-85
2023/11/17 16:45:56;;;;;;;3.80;2.35;;;;;;;;;;4901676;29;20032;-82